Fort Indiantown Gap, PA

8:25 AM EST on December 10, 2019 (GMT -0500)
Muir Army Air Field

Weather History for KMUI - October, 2019

Change the Weather History Date:

Sunday, October 27, 2019

  Actual Average Record
Temperature  
Mean Temperature 63 °F -  
Max Temperature 75 °F 57 °F 75 °F (2019)
Min Temperature 51 °F 40 °F 30 °F (2015)
Degree Days  
Heating Degree Days 2    
Growing Degree Days 13 (Base 50)    
Moisture  
Dew Point 54 °F    
Average Humidity 89    
Maximum Humidity 100    
Minimum Humidity 46    
Precipitation  
Precipitation 1.70 in - - ()
Sea Level Pressure  
Sea Level Pressure 29.90 in    
Wind  
Wind Speed 6 mph (NE)    
Max Wind Speed 17 mph    
Max Gust Speed 30 mph    
Visibility 6 miles    
Events Rain    
Averages and records for this station are not official NWS values.
T = Trace of Precipitation, MM = Missing Value Source: NWS Daily Summary

Daily Weather History Graph

Daily Weather History Graph

Search for Another Location

Airport or City:

Astronomy

Oct. 27, 2019 Rise Set
Actual Time 7:30 AM EDT 6:09 PM EDT
Civil Twilight 7:02 AM EDT 6:37 PM EDT
Nautical Twilight 6:30 AM EDT 7:09 PM EDT
Astronomical Twilight 5:58 AM EDT 7:41 PM EDT
Moon 6:35 AM EDT (10/27) 6:18 PM EDT (10/27)
Length of Visible Light 11h 35m
Length of Day
10h 39m
Waning Crescent, 0% of the Moon is Illuminated
Oct 27
Waning Crescent
Oct 27
New
Nov 4
First Quarter
Nov 12
Full
Nov 19
Last Quarter

Hourly Weather History & Observations

Time (EDT) Temp. Dew Point Humidity Pressure Visibility Wind Dir Wind Speed Gust Speed Precip Events Conditions
12:35 AM 53.6 °F 50.0 °F 88% 30.14 in 10.0 mi NE 3.5 mph - N/A Rain Light Rain
12:51 AM 53.6 °F 50.0 °F 88% 30.13 in 10.0 mi NE 3.5 mph - N/A   Overcast
12:56 AM 52.7 °F 50.7 °F 93% 30.13 in 10.0 mi ENE 3.5 mph - 0.00 in   Overcast
1:03 AM 53.6 °F 50.0 °F 88% 30.12 in 10.0 mi ENE 5.8 mph - N/A Rain Light Rain
1:26 AM 51.8 °F 50.0 °F 94% 30.12 in 10.0 mi NE 4.6 mph - N/A   Overcast
1:49 AM 51.8 °F 50.0 °F 94% 30.11 in 10.0 mi NE 3.5 mph - N/A   Light Drizzle
1:56 AM 52.2 °F 50.2 °F 93% 30.12 in 10.0 mi NE 3.5 mph - 0.01 in   Light Drizzle
1:57 AM 51.8 °F 50.0 °F 94% 30.12 in 10.0 mi NE 4.6 mph - N/A Rain Light Rain
2:36 AM 51.8 °F 50.0 °F 94% 30.09 in 10.0 mi NE 3.5 mph - N/A   Overcast
2:54 AM 51.8 °F 50.0 °F 94% 30.09 in 10.0 mi NE 3.5 mph - N/A   Light Drizzle
2:56 AM 52.0 °F 50.5 °F 95% 30.09 in 10.0 mi Calm Calm - 0.03 in   Light Drizzle
2:58 AM 51.8 °F 50.0 °F 94% 30.09 in 10.0 mi NE 4.6 mph - N/A   Light Drizzle
3:16 AM 51.8 °F 51.8 °F 100% 30.07 in 9.0 mi ENE 5.8 mph - N/A   Overcast
3:27 AM 51.8 °F 51.8 °F 100% 30.05 in 10.0 mi ENE 9.2 mph - N/A Rain Light Rain
3:56 AM 52.2 °F 50.7 °F 95% 30.02 in 10.0 mi ENE 8.1 mph - 0.03 in Rain Light Rain
4:19 AM 51.8 °F 50.0 °F 94% 30.02 in 10.0 mi ENE 6.9 mph - N/A Rain Light Rain
4:56 AM 52.2 °F 51.1 °F 96% 29.98 in 6.0 mi NE 6.9 mph - 0.06 in Rain Light Rain
5:27 AM 51.8 °F 51.8 °F 100% 29.96 in 10.0 mi ENE 8.1 mph - N/A   Overcast
5:37 AM 51.8 °F 51.8 °F 100% 29.96 in 10.0 mi ENE 6.9 mph - N/A Rain Light Rain
5:56 AM 52.9 °F 52.0 °F 97% 29.94 in 6.0 mi ENE 6.9 mph - 0.05 in Rain Rain
6:44 AM 53.6 °F 53.6 °F 100% 29.90 in 2.8 mi East 6.9 mph - N/A Rain Light Rain
6:52 AM 53.6 °F 53.6 °F 100% 29.90 in 3.0 mi ENE 4.6 mph - N/A Rain Rain
6:56 AM 54.0 °F 53.6 °F 99% 29.90 in 2.8 mi NE 4.6 mph - 0.30 in Rain Heavy Rain
7:04 AM 53.6 °F 53.6 °F 100% 29.89 in 2.5 mi NE 4.6 mph - N/A Rain Rain
7:12 AM 53.6 °F 53.6 °F 100% 29.88 in 4.0 mi NE 5.8 mph - N/A Rain Light Rain
7:36 AM 55.4 °F 53.6 °F 94% 29.88 in 1.8 mi NE 4.6 mph - N/A Rain Heavy Rain
7:52 AM 55.4 °F 53.6 °F 94% 29.86 in 2.5 mi ENE 6.9 mph - N/A Rain Light Rain
7:56 AM 54.7 °F 54.3 °F 99% 29.86 in 3.0 mi ENE 5.8 mph - 0.26 in Rain Light Rain
8:04 AM 55.4 °F 55.4 °F 100% 29.85 in 2.8 mi ENE 8.1 mph - N/A Rain Light Rain
8:12 AM 55.4 °F 55.4 °F 100% 29.85 in 5.0 mi ENE 8.1 mph - N/A Rain Light Rain
8:28 AM 55.4 °F 55.4 °F 100% 29.83 in 1.8 mi ENE 8.1 mph - N/A Rain Light Rain
8:56 AM 55.9 °F 55.6 °F 99% 29.84 in 2.0 mi NNE 4.6 mph - 0.22 in Rain Rain
9:04 AM 55.4 °F 55.4 °F 100% 29.82 in 1.2 mi NE 6.9 mph - N/A Rain Heavy Rain
9:06 AM 55.4 °F 55.4 °F 100% 29.82 in 1.0 mi ENE 8.1 mph - N/A Rain Heavy Rain
9:20 AM 57.2 °F 55.4 °F 94% 29.78 in 1.1 mi NE 6.9 mph - N/A Rain Heavy Rain
9:28 AM 57.2 °F 55.4 °F 94% 29.78 in 1.8 mi NE 5.8 mph - N/A Rain Rain
9:36 AM 57.2 °F 57.2 °F 100% 29.78 in 1.2 mi North 5.8 mph - N/A Rain Heavy Rain
9:44 AM 57.2 °F 57.2 °F 100% 29.83 in 1.8 mi WNW 12.7 mph 19.6 mph N/A Rain Heavy Rain
9:50 AM 57.2 °F 57.2 °F 100% 29.82 in 1.0 mi NNW 9.2 mph 29.9 mph N/A Rain Heavy Rain
9:54 AM 59.0 °F 59.0 °F 100% 29.83 in 1.2 mi NW 9.2 mph 29.9 mph N/A Rain Heavy Rain
9:56 AM 58.6 °F 58.3 °F 99% 29.83 in 1.9 mi WNW 8.1 mph 21.9 mph 0.72 in Rain Heavy Rain
10:04 AM 59.0 °F 59.0 °F 100% 29.82 in 5.0 mi Calm Calm - N/A Rain Rain
10:12 AM 59.0 °F 59.0 °F 100% 29.80 in 4.0 mi East 5.8 mph - N/A Rain Light Rain
10:20 AM 60.8 °F 59.0 °F 94% 29.78 in 2.0 mi ENE 5.8 mph - N/A Rain Light Rain
10:21 AM 60.8 °F 59.0 °F 94% 29.78 in 2.2 mi ENE 5.8 mph - N/A   Mostly Cloudy
10:29 AM 60.8 °F 60.8 °F 100% 29.78 in 2.0 mi ENE 4.6 mph - N/A   Overcast
10:45 AM 60.8 °F 60.8 °F 100% 29.78 in 3.0 mi Calm Calm - N/A   Overcast
10:53 AM 60.8 °F 60.8 °F 100% 29.78 in 2.8 mi ENE 5.8 mph - N/A   Overcast
10:56 AM 60.4 °F 59.9 °F 98% 29.79 in 2.5 mi NE 3.5 mph - 0.02 in   Overcast
11:04 AM 60.8 °F 60.8 °F 100% 29.79 in 6.0 mi Calm Calm - N/A   Overcast
11:20 AM 62.6 °F 60.8 °F 94% 29.79 in 2.5 mi Calm Calm - N/A   Overcast
11:28 AM 64.4 °F 60.8 °F 88% 29.79 in 2.8 mi Calm Calm - N/A   Overcast
11:36 AM 64.4 °F 60.8 °F 88% 29.79 in 5.0 mi Calm Calm - N/A   Overcast
11:56 AM 65.5 °F 60.8 °F 85% 29.79 in 10.0 mi Calm Calm - N/A   Overcast
12:56 PM 68.2 °F 61.3 °F 79% 29.76 in 10.0 mi South 3.5 mph - N/A   Clear
1:56 PM 70.3 °F 61.7 °F 74% 29.74 in 10.0 mi SW 6.9 mph - N/A   Overcast
2:20 PM 73.4 °F 60.8 °F 65% 29.73 in 10.0 mi SW 11.5 mph - N/A   Mostly Cloudy
2:56 PM 73.8 °F 60.3 °F 63% 29.73 in 10.0 mi SW 8.1 mph - N/A   Scattered Clouds
3:30 PM 75.2 °F 55.4 °F 50% 29.74 in 10.0 mi West 12.7 mph 21.9 mph N/A   Overcast
3:56 PM 74.8 °F 52.7 °F 46% 29.75 in 10.0 mi West 15.0 mph 24.2 mph N/A   Mostly Cloudy
4:56 PM 72.0 °F 51.3 °F 48% 29.80 in 10.0 mi WNW 17.3 mph 25.3 mph N/A   Partly Cloudy
5:56 PM 67.5 °F 49.3 °F 52% 29.84 in 10.0 mi West 17.3 mph 23.0 mph N/A   Clear
6:56 PM 64.4 °F 48.4 °F 56% 29.90 in 10.0 mi West 9.2 mph 24.2 mph N/A   Mostly Cloudy
7:56 PM 63.0 °F 47.5 °F 57% 29.92 in 10.0 mi West 16.1 mph 23.0 mph N/A   Overcast
8:56 PM 60.3 °F 45.5 °F 58% 29.96 in 10.0 mi NW 8.1 mph 19.6 mph N/A   Overcast
9:56 PM 59.5 °F 45.1 °F 59% 29.98 in 10.0 mi West 12.7 mph 21.9 mph N/A   Mostly Cloudy
10:56 PM 58.1 °F 45.1 °F 62% 29.99 in 10.0 mi WNW 5.8 mph - N/A   Clear
11:56 PM 57.7 °F 45.7 °F 64% 30.00 in 10.0 mi West 8.1 mph - N/A   Clear